Time;durP1;ratioP1;P1;durP2;ratioP2;P2;SDS_P1;SDS_P2;PMS_P1;PMS_P2;Temp;Humidity;BMP_temperature;BMP_pressure;BME280_temperature;BME280_humidity;BME280_pressure;Samples;Min_cycle;Max_cycle;Signal;HPM_P1;HPM_P2
2020/12/08 00:00:14;;;;;;;9.77;7.32;;;;;;;3.21;81.44;100266.44;5071247;28;20040;-67
2020/12/08 00:02:39;;;;;;;10.25;7.32;;;;;;;3.21;81.44;100266.44;5072159;28;20119;-67
2020/12/08 00:05:05;;;;;;;12.50;8.80;;;;;;;3.23;81.53;100266.28;5071204;28;20131;-68
2020/12/08 00:07:30;;;;;;;10.40;6.83;;;;;;;3.23;81.50;100269.78;5071951;28;20123;-68
2020/12/08 00:09:55;;;;;;;11.27;7.80;;;;;;;3.24;81.54;100267.97;5072078;28;20048;-67
2020/12/08 00:12:27;;;;;;;14.57;8.70;;;;;;;3.27;81.44;100278.25;5072082;28;20040;-68
2020/12/08 00:14:54;;;;;;;10.60;7.93;;;;;;;3.27;81.44;100276.44;5071010;28;20032;-68
2020/12/08 00:17:20;;;;;;;10.70;7.35;;;;;;;3.28;81.33;100272.88;5070849;28;20115;-68
2020/12/08 00:19:45;;;;;;;14.27;7.88;;;;;;;3.30;81.35;100286.78;5071981;28;20237;-68
2020/12/08 00:22:11;;;;;;;9.87;6.63;;;;;;;3.30;81.40;100278.84;5071055;28;20040;-68
2020/12/08 00:24:37;;;;;;;9.75;6.93;;;;;;;3.30;81.29;100286.78;5071766;28;20162;-68
2020/12/08 00:27:02;;;;;;;9.70;7.18;;;;;;;3.31;81.50;100290.25;5069897;28;20037;-67
2020/12/08 00:29:27;;;;;;;12.13;7.67;;;;;;;3.29;81.73;100292.16;5070826;28;20036;-68
2020/12/08 00:31:53;;;;;;;9.57;7.30;;;;;;;3.30;81.33;100292.06;5070828;28;20042;-67
2020/12/08 00:34:18;;;;;;;10.67;7.53;;;;;;;3.32;81.21;100282.19;5070810;28;20033;-67
2020/12/08 00:36:43;;;;;;;10.20;7.63;;;;;;;3.32;81.11;100276.91;5071322;28;20032;-67
2020/12/08 00:39:09;;;;;;;9.50;7.30;;;;;;;3.33;81.08;100286.50;5071663;28;20028;-68
2020/12/08 00:41:34;;;;;;;11.23;8.37;;;;;;;3.34;81.17;100285.53;5071462;28;20028;-68
2020/12/08 00:43:59;;;;;;;9.67;6.97;;;;;;;3.35;81.17;100271.38;5070697;28;20093;-68
2020/12/08 00:46:25;;;;;;;12.27;8.80;;;;;;;3.38;80.81;100278.22;5071185;28;20070;-67
2020/12/08 00:48:50;;;;;;;9.77;7.57;;;;;;;3.37;81.07;100280.03;5071577;28;20048;-68
2020/12/08 00:51:17;;;;;;;11.60;7.70;;;;;;;3.34;81.01;100276.78;5070517;28;20474;-68
2020/12/08 00:53:42;;;;;;;13.57;8.50;;;;;;;3.37;81.06;100280.03;5070496;28;20035;-67
2020/12/08 00:56:11;;;;;;;10.10;7.60;;;;;;;3.34;81.21;100269.69;5070100;28;20157;-68
2020/12/08 00:58:39;;;;;;;10.75;7.20;;;;;;;3.36;81.27;100273.06;5071409;28;20039;-68
2020/12/08 01:01:07;;;;;;;11.38;7.90;;;;;;;3.37;80.96;100274.75;5070342;28;20075;-67
2020/12/08 01:03:33;;;;;;;;;;;;;;;3.40;81.02;100267.53;5071744;28;20369;-68
2020/12/08 01:05:59;;;;;;;12.82;8.60;;;;;;;3.37;80.86;100272.09;5069911;28;20373;-68
2020/12/08 01:08:25;;;;;;;10.82;7.88;;;;;;;3.40;80.86;100272.81;5070357;28;20119;-67
2020/12/08 01:10:52;;;;;;;13.23;7.97;;;;;;;3.43;80.37;100283.94;5071089;28;20048;-67
2020/12/08 01:13:18;;;;;;;11.38;7.43;;;;;;;3.43;80.52;100277.81;5070272;28;20032;-67
2020/12/08 01:15:44;;;;;;;8.85;7.13;;;;;;;3.45;80.44;100270.63;5070916;28;20095;-68
2020/12/08 01:18:09;;;;;;;10.43;7.40;;;;;;;3.46;80.43;100272.28;5070231;28;20466;-68
2020/12/08 01:20:35;;;;;;;9.35;7.68;;;;;;;3.48;80.67;100280.91;5071252;28;20698;-68
2020/12/08 01:23:00;;;;;;;9.07;7.47;;;;;;;3.44;80.69;100290.91;5070191;28;20485;-68
2020/12/08 01:25:26;;;;;;;8.93;7.47;;;;;;;3.46;80.61;100288.13;5070878;28;20358;-67
2020/12/08 01:27:52;;;;;;;10.07;7.15;;;;;;;3.48;80.83;100287.03;5069970;28;20446;-67
2020/12/08 01:30:17;;;;;;;9.57;7.57;;;;;;;3.50;80.99;100292.19;5070203;28;20072;-68
2020/12/08 01:32:45;;;;;;;11.93;8.20;;;;;;;3.46;80.87;100296.03;5070135;28;20068;-68
2020/12/08 01:35:11;;;;;;;10.43;8.20;;;;;;;3.50;80.74;100297.47;5053700;28;20087;-70
2020/12/08 01:37:37;;;;;;;10.13;7.43;;;;;;;3.47;81.18;100287.19;5072627;28;20361;-71
2020/12/08 01:40:05;;;;;;;9.55;8.07;;;;;;;3.48;80.97;100288.84;5073954;28;20070;-71
2020/12/08 01:42:31;;;;;;;12.25;8.38;;;;;;;3.47;81.26;100287.19;5074939;28;20032;-71
2020/12/08 01:44:57;;;;;;;12.25;7.63;;;;;;;3.50;81.27;100287.75;5073911;28;20035;-71
2020/12/08 01:47:23;;;;;;;11.43;7.70;;;;;;;3.52;81.03;100287.63;5073595;28;20032;-71
2020/12/08 01:49:49;;;;;;;10.03;8.90;;;;;;;3.42;81.11;100289.34;5074933;28;20032;-71
2020/12/08 01:52:15;;;;;;;8.70;7.00;;;;;;;3.44;81.14;100282.13;5073794;28;20032;-71
2020/12/08 01:54:45;;;;;;;;;;;;;;;3.46;81.03;100282.84;5075123;28;20362;-71
2020/12/08 01:57:11;;;;;;;10.55;7.70;;;;;;;3.48;81.07;100276.47;5073606;28;19917;-71
2020/12/08 01:59:38;;;;;;;11.27;8.10;;;;;;;3.47;80.96;100289.81;5073693;28;20032;-71
2020/12/08 02:02:14;;;;;;;7.97;5.70;;;;;;;3.46;81.11;100290.75;5073721;28;20024;-71
2020/12/08 02:04:39;;;;;;;11.13;8.20;;;;;;;3.44;80.85;100284.78;5073581;28;20351;-71
2020/12/08 02:07:05;;;;;;;9.60;7.00;;;;;;;3.50;80.52;100286.91;5073164;28;20036;-71
2020/12/08 02:09:34;;;;;;;11.57;8.60;;;;;;;3.49;81.05;100287.84;5073439;28;20457;-71
2020/12/08 02:12:00;;;;;;;12.60;8.10;;;;;;;3.52;81.24;100300.81;5056786;28;20028;-71
2020/12/08 02:14:25;;;;;;;11.20;8.03;;;;;;;3.51;81.39;100293.84;5073473;28;20489;-71
2020/12/08 02:16:51;;;;;;;10.65;8.60;;;;;;;3.42;81.17;100287.56;5073010;28;20032;-71
2020/12/08 02:19:16;;;;;;;11.73;8.37;;;;;;;3.50;81.18;100298.28;5073318;28;20033;-71
2020/12/08 02:21:42;;;;;;;15.40;8.70;;;;;;;3.46;80.88;100290.75;5073180;28;20032;-71
2020/12/08 02:24:16;;;;;;;11.85;8.90;;;;;;;3.42;81.02;100286.69;5074285;28;20024;-71
2020/12/08 02:26:42;;;;;;;12.10;8.88;;;;;;;3.34;81.33;100290.81;5073080;28;20037;-71
2020/12/08 02:29:11;;;;;;;10.77;8.15;;;;;;;3.34;81.20;100295.25;5056830;28;20058;-71
2020/12/08 02:31:40;;;;;;;12.75;8.25;;;;;;;3.34;81.20;100298.72;5073122;28;20519;-71
2020/12/08 02:34:07;;;;;;;13.57;8.77;;;;;;;3.40;81.01;100299.22;5072911;28;20134;-71
2020/12/08 02:36:34;;;;;;;11.60;8.10;;;;;;;3.38;81.06;100302.78;5072874;28;20028;-71
2020/12/08 02:39:00;;;;;;;;;;;;;;;3.32;81.07;100292.72;5073318;28;20028;-71
2020/12/08 02:41:25;;;;;;;12.10;7.93;;;;;;;3.34;81.09;100304.00;5073074;28;20050;-71
2020/12/08 02:43:54;;;;;;;12.38;9.13;;;;;;;3.37;80.98;100303.78;5072942;28;20454;-70
2020/12/08 02:46:22;;;;;;;12.73;9.07;;;;;;;3.37;80.95;100305.53;5072499;28;20373;-71
2020/12/08 02:48:48;;;;;;;11.85;8.80;;;;;;;3.36;81.06;100307.34;5071867;28;20024;-71
2020/12/08 02:51:16;;;;;;;13.05;9.02;;;;;;;3.34;81.16;100309.28;5072741;28;20055;-71
2020/12/08 02:53:43;;;;;;;11.43;8.18;;;;;;;3.40;81.16;100304.47;5056298;28;20032;-71
2020/12/08 02:56:08;;;;;;;8.65;6.32;;;;;;;3.42;81.24;100302.53;5072411;28;20373;-71
2020/12/08 02:58:34;;;;;;;11.07;8.50;;;;;;;3.48;81.19;100302.03;5073732;28;20070;-71
2020/12/08 03:00:59;;;;;;;12.17;8.50;;;;;;;3.37;80.80;100289.72;5072575;28;20028;-71
2020/12/08 03:03:24;;;;;;;12.87;8.70;;;;;;;3.35;80.88;100294.31;5072384;28;20106;-71
2020/12/08 03:05:50;;;;;;;17.63;9.27;;;;;;;3.38;80.32;100291.41;5072145;28;20033;-71
2020/12/08 03:08:16;;;;;;;12.60;9.18;;;;;;;3.44;80.65;100287.41;5072588;28;20458;-71
2020/12/08 03:10:42;;;;;;;;;;;;;;;3.43;80.31;100296.31;5072920;28;20041;-71
2020/12/08 03:13:08;;;;;;;;;;;;;;;3.41;80.33;100293.78;5073829;28;19923;-71
2020/12/08 03:15:36;;;;;;;12.43;9.02;;;;;;;3.37;80.61;100290.56;5072021;28;19920;-71
2020/12/08 03:18:01;;;;;;;10.77;8.27;;;;;;;3.34;80.66;100290.81;5072111;28;20422;-71
2020/12/08 03:20:28;;;;;;;13.52;9.07;;;;;;;3.41;80.76;100290.31;5072139;28;20420;-71
2020/12/08 03:22:54;;;;;;;13.82;9.45;;;;;;;3.35;80.08;100286.41;5072200;28;20454;-71
2020/12/08 03:25:19;;;;;;;13.27;8.50;;;;;;;3.34;80.40;100296.09;5072052;28;20382;-71
2020/12/08 03:27:47;;;;;;;12.93;8.65;;;;;;;3.35;79.86;100299.59;5071857;28;20681;-70
2020/12/08 03:30:13;;;;;;;12.90;9.85;;;;;;;3.38;79.65;100289.59;5055511;28;20067;-70
2020/12/08 03:32:38;;;;;;;12.57;8.87;;;;;;;3.42;79.51;100290.19;5071888;28;20059;-71
2020/12/08 03:35:08;;;;;;;10.82;8.13;;;;;;;3.44;79.39;100285.63;5071995;28;20040;-70
2020/12/08 03:37:34;;;;;;;10.63;7.78;;;;;;;3.47;79.44;100290.66;5072593;28;20473;-70
2020/12/08 03:40:06;;;;;;;12.35;8.82;;;;;;;3.43;79.49;100289.22;5071943;28;20036;-71
2020/12/08 03:42:32;;;;;;;12.68;8.85;;;;;;;3.46;79.59;100296.88;5055324;28;20038;-71
2020/12/08 03:44:58;;;;;;;14.23;10.27;;;;;;;3.46;79.53;100299.50;5071597;28;20111;-70
2020/12/08 03:47:41;;;;;;;12.73;8.65;;;;;;;3.37;79.99;100301.13;5072412;28;20208;-71
2020/12/08 03:50:09;;;;;;;12.07;8.52;;;;;;;3.37;79.62;100295.84;5055245;28;20115;-71
2020/12/08 03:52:36;;;;;;;11.23;8.45;;;;;;;3.38;79.53;100301.97;5071619;28;20040;-70
2020/12/08 03:55:03;;;;;;;11.82;8.85;;;;;;;3.35;79.84;100308.34;5071478;28;20021;-70
2020/12/08 03:57:30;;;;;;;16.70;10.15;;;;;;;3.32;79.95;100316.47;5070946;28;20087;-70
2020/12/08 03:59:55;;;;;;;13.50;8.65;;;;;;;3.37;80.10;100313.47;5071439;28;20044;-71
2020/12/08 04:02:20;;;;;;;14.37;10.00;;;;;;;3.33;80.07;100322.63;5071284;28;20044;-70
2020/12/08 04:04:46;;;;;;;12.83;9.17;;;;;;;3.36;80.15;100311.81;5071285;28;20044;-71
2020/12/08 04:07:13;;;;;;;15.82;9.18;;;;;;;3.38;79.86;100302.78;5054591;28;20051;-71
2020/12/08 04:09:41;;;;;;;12.90;9.27;;;;;;;3.43;79.68;100305.06;5071283;28;20077;-71
2020/12/08 04:12:08;;;;;;;;;;;;;;;3.42;79.92;100311.31;5071489;28;20376;-71
2020/12/08 04:14:35;;;;;;;11.98;8.52;;;;;;;3.47;80.00;100313.56;5054813;28;19919;-71
2020/12/08 04:17:01;;;;;;;12.20;9.20;;;;;;;3.46;79.75;100319.78;5070692;28;20365;-71
2020/12/08 04:19:27;;;;;;;;;;;;;;;3.44;80.03;100319.06;5071554;28;20040;-71
2020/12/08 04:21:57;;;;;;;;;;;;;;;3.41;79.93;100327.25;5072454;28;19970;-70
2020/12/08 04:24:29;;;;;;;12.25;8.63;;;;;;;3.40;79.87;100333.50;5070789;28;19934;-71
2020/12/08 04:26:55;;;;;;;15.13;9.35;;;;;;;3.43;80.46;100335.88;5070619;28;20037;-71
2020/12/08 04:29:29;;;;;;;13.75;9.27;;;;;;;3.48;80.35;100331.06;5070880;28;20047;-71
2020/12/08 04:31:54;;;;;;;13.67;9.27;;;;;;;3.51;80.17;100344.84;5070801;28;20029;-71
2020/12/08 04:34:20;;;;;;;13.07;9.20;;;;;;;3.52;80.24;100341.25;5070918;28;20047;-71
2020/12/08 04:36:45;;;;;;;14.10;9.57;;;;;;;3.53;80.01;100345.53;5071541;28;20032;-71
2020/12/08 04:39:11;;;;;;;14.75;9.75;;;;;;;3.56;80.05;100334.75;5071522;28;20074;-71
2020/12/08 04:41:36;;;;;;;15.33;8.70;;;;;;;3.50;79.43;100353.72;5070791;28;20120;-71
2020/12/08 04:44:04;;;;;;;14.73;10.10;;;;;;;3.47;79.71;100343.44;5071611;28;20036;-71
2020/12/08 04:46:30;;;;;;;13.80;9.75;;;;;;;3.42;79.94;100344.75;5071248;28;20032;-70
2020/12/08 04:48:55;;;;;;;17.08;10.70;;;;;;;3.37;79.62;100338.06;5070643;28;20394;-71
2020/12/08 04:51:21;;;;;;;12.95;9.35;;;;;;;3.44;79.49;100330.50;5070515;28;20079;-70
2020/12/08 04:53:47;;;;;;;14.90;10.60;;;;;;;3.43;79.28;100343.81;5070485;28;20041;-71
2020/12/08 04:56:12;;;;;;;16.20;11.68;;;;;;;3.36;79.56;100338.19;5070198;28;20095;-71
2020/12/08 04:58:38;;;;;;;14.50;10.73;;;;;;;3.35;79.93;100355.00;5071441;28;20028;-71
2020/12/08 05:01:03;;;;;;;12.97;9.07;;;;;;;3.29;80.43;100353.69;5070361;28;20120;-71
2020/12/08 05:03:32;;;;;;;15.63;10.47;;;;;;;3.30;80.24;100354.50;5070260;28;20123;-71
2020/12/08 05:05:58;;;;;;;15.05;10.63;;;;;;;3.30;80.44;100363.28;5070141;28;20032;-71
2020/12/08 05:08:25;;;;;;;15.05;10.13;;;;;;;3.23;80.75;100346.28;5070261;28;20077;-71
2020/12/08 05:10:50;;;;;;;14.55;10.70;;;;;;;3.24;80.50;100355.88;5071296;28;20066;-71
2020/12/08 05:13:20;;;;;;;13.93;9.90;;;;;;;3.24;80.84;100347.94;5069947;28;20545;-71
2020/12/08 05:16:03;;;;;;;17.10;11.95;;;;;;;3.23;80.67;100353.34;5070946;28;20052;-71
2020/12/08 05:18:30;;;;;;;19.38;11.68;;;;;;;3.24;80.64;100353.22;5071285;28;20039;-71
2020/12/08 05:21:11;;;;;;;17.13;11.38;;;;;;;3.24;80.37;100355.03;5070975;28;20069;-71
2020/12/08 05:23:43;;;;;;;15.90;10.77;;;;;;;3.26;80.81;100346.03;5071240;28;20040;-71
2020/12/08 05:26:10;;;;;;;18.98;13.05;;;;;;;3.24;80.59;100347.13;5070744;28;20657;-71
2020/12/08 05:28:36;;;;;;;16.88;11.43;;;;;;;3.21;80.53;100342.94;5071176;28;20059;-71
2020/12/08 05:31:01;;;;;;;15.95;10.82;;;;;;;3.25;80.65;100349.59;5071060;28;20111;-71
2020/12/08 05:33:26;;;;;;;18.47;12.53;;;;;;;3.23;80.73;100346.28;5070083;28;20120;-71
2020/12/08 05:35:55;;;;;;;19.27;11.57;;;;;;;3.23;80.73;100348.94;5069766;28;20033;-71
2020/12/08 05:38:24;;;;;;;15.98;10.57;;;;;;;3.26;80.67;100351.31;5071038;28;20045;-71
2020/12/08 05:40:51;;;;;;;16.70;10.98;;;;;;;3.21;80.55;100353.47;5070957;28;20040;-71
2020/12/08 05:43:20;;;;;;;19.98;12.75;;;;;;;3.23;80.55;100361.25;5071070;28;20036;-70
2020/12/08 05:45:48;;;;;;;16.67;11.30;;;;;;;3.26;80.52;100353.09;5069475;28;20098;-71
2020/12/08 05:48:21;;;;;;;17.73;11.27;;;;;;;3.23;80.51;100346.28;5070924;28;20040;-71
2020/12/08 05:50:46;;;;;;;19.60;12.95;;;;;;;3.27;80.09;100357.41;5069891;28;20528;-70
2020/12/08 05:53:16;;;;;;;16.17;11.13;;;;;;;3.26;80.46;100353.94;5070948;28;20044;-71
2020/12/08 05:55:41;;;;;;;19.48;10.85;;;;;;;3.20;80.32;100354.44;5070589;28;20033;-70
2020/12/08 05:58:09;;;;;;;17.43;11.40;;;;;;;3.25;80.17;100346.97;5070928;28;20446;-71
2020/12/08 06:00:36;;;;;;;16.83;12.30;;;;;;;3.28;79.87;100349.38;5069710;28;20450;-71
2020/12/08 06:03:16;;;;;;;20.25;12.73;;;;;;;3.22;79.72;100349.88;5070729;28;20036;-68
2020/12/08 06:05:51;;;;;;;18.05;11.65;;;;;;;3.22;80.00;100349.88;5052745;28;20335;-67
2020/12/08 06:08:21;;;;;;;20.10;11.60;;;;;;;3.31;80.18;100351.75;5069837;28;20040;-67
2020/12/08 06:10:48;;;;;;;22.77;12.40;;;;;;;4.07;85.05;100346.31;5052797;28;20090;-67
2020/12/08 06:13:31;;;;;;;18.63;11.60;;;;;;;3.91;80.25;100340.66;5070654;28;20036;-68
2020/12/08 06:16:00;;;;;;;16.63;11.45;;;;;;;3.55;79.13;100348.06;5070314;28;20028;-67
2020/12/08 06:18:32;;;;;;;18.60;11.98;;;;;;;3.47;79.67;100351.34;5070683;28;20044;-67
2020/12/08 06:20:59;;;;;;;18.85;12.70;;;;;;;3.32;79.65;100360.50;5070630;28;20055;-67
2020/12/08 06:23:24;;;;;;;15.70;11.32;;;;;;;3.38;79.50;100355.56;5052871;28;20059;-67
2020/12/08 06:26:03;;;;;;;12.33;8.77;;;;;;;3.42;79.35;100365.88;5072511;28;20045;-67
2020/12/08 06:28:29;;;;;;;18.30;11.55;;;;;;;3.33;79.44;100364.84;5073187;28;20370;-67
2020/12/08 06:31:06;;;;;;;18.17;12.05;;;;;;;3.36;79.40;100368.06;5074091;28;20576;-67
2020/12/08 06:33:45;;;;;;;18.77;11.73;;;;;;;3.32;79.25;100368.41;5056374;28;20355;-68
2020/12/08 06:36:11;;;;;;;17.73;11.50;;;;;;;3.24;79.42;100363.78;5072840;28;20503;-67
2020/12/08 06:38:36;;;;;;;16.17;11.43;;;;;;;3.35;79.71;100368.19;5073069;28;20146;-67
2020/12/08 06:41:01;;;;;;;16.90;11.50;;;;;;;3.41;79.39;100366.84;5073021;28;20043;-67
2020/12/08 06:43:26;;;;;;;19.60;12.93;;;;;;;3.38;79.54;100368.75;5073908;28;20110;-68
2020/12/08 06:45:52;;;;;;;16.53;12.07;;;;;;;3.32;78.81;100369.25;5072625;28;20132;-67
2020/12/08 06:48:18;;;;;;;26.70;12.17;;;;;;;3.34;79.03;100369.13;5073666;28;20060;-67
2020/12/08 06:50:44;;;;;;;19.45;12.30;;;;;;;3.32;79.25;100365.78;5072780;28;20213;-67
2020/12/08 06:53:09;;;;;;;17.27;10.57;;;;;;;3.40;79.14;100371.28;5072862;28;20118;-68
2020/12/08 06:55:48;;;;;;;15.23;10.83;;;;;;;3.43;79.09;100367.56;5055809;28;20576;-67
2020/12/08 06:58:20;;;;;;;17.92;11.57;;;;;;;3.39;79.17;100374.88;5073623;28;20479;-67
2020/12/08 07:00:45;;;;;;;16.23;10.88;;;;;;;3.38;78.96;100381.13;5072586;28;20032;-68
2020/12/08 07:03:12;;;;;;;13.38;8.85;;;;;;;3.40;78.27;100379.22;5073335;28;20070;-68
2020/12/08 07:05:38;;;;;;;16.50;11.23;;;;;;;3.44;78.75;100370.09;5073100;28;20051;-68
2020/12/08 07:08:06;;;;;;;16.00;11.02;;;;;;;3.46;79.37;100369.94;5073416;28;20489;-68
2020/12/08 07:10:39;;;;;;;18.20;11.75;;;;;;;3.43;79.04;100367.56;5073436;28;20094;-68
2020/12/08 07:13:14;;;;;;;17.38;11.43;;;;;;;3.34;79.08;100377.88;5073389;28;20032;-68
2020/12/08 07:15:40;;;;;;;16.15;11.57;;;;;;;3.34;78.64;100384.97;5072797;28;20041;-70
2020/12/08 07:18:07;;;;;;;20.17;13.45;;;;;;;3.32;78.67;100382.44;5072310;28;20032;-70
2020/12/08 07:20:33;;;;;;;20.50;13.40;;;;;;;3.29;78.65;100393.25;5072139;28;20032;-70
2020/12/08 07:23:03;;;;;;;19.33;12.27;;;;;;;3.32;78.47;100398.28;5072278;28;20036;-70
2020/12/08 07:25:29;;;;;;;17.85;11.50;;;;;;;3.38;78.21;100395.16;5072770;28;20090;-70
2020/12/08 07:27:55;;;;;;;13.95;10.45;;;;;;;3.37;77.14;100393.50;5055163;28;20055;-70
2020/12/08 07:30:23;;;;;;;16.00;10.75;;;;;;;3.43;77.37;100400.06;5072936;28;20037;-70
2020/12/08 07:32:49;;;;;;;18.27;10.77;;;;;;;3.48;77.76;100408.44;5072970;28;20036;-70
2020/12/08 07:35:20;;;;;;;14.80;10.27;;;;;;;3.50;78.49;100409.16;5072584;28;20033;-70
2020/12/08 07:37:46;;;;;;;15.77;11.10;;;;;;;3.54;78.62;100413.22;5072441;28;20033;-70
2020/12/08 07:40:12;;;;;;;17.10;11.98;;;;;;;3.53;78.69;100414.16;5072677;28;20370;-70
2020/12/08 07:42:44;;;;;;;19.53;11.77;;;;;;;3.52;78.62;100420.44;5071677;28;20051;-70
2020/12/08 07:45:09;;;;;;;22.65;13.18;;;;;;;3.55;78.49;100419.34;5072561;28;20040;-70
2020/12/08 07:47:35;;;;;;;17.37;10.20;;;;;;;3.57;78.63;100417.41;5071932;28;20534;-68
2020/12/08 07:50:03;;;;;;;17.37;11.47;;;;;;;3.55;78.57;100425.44;5072424;28;20358;-67
2020/12/08 07:52:28;;;;;;;18.85;12.48;;;;;;;3.54;78.71;100422.94;5071559;28;20429;-68
2020/12/08 07:54:53;;;;;;;16.93;11.53;;;;;;;3.55;78.97;100419.34;5071339;28;20136;-68
2020/12/08 07:57:19;;;;;;;19.43;12.93;;;;;;;3.58;79.04;100419.94;5072028;28;20347;-68
2020/12/08 07:59:44;;;;;;;23.10;12.63;;;;;;;3.55;78.60;100412.25;5072444;28;20366;-68
2020/12/08 08:02:09;;;;;;;19.90;12.07;;;;;;;3.60;78.69;100417.16;5071195;28;20334;-68
2020/12/08 08:04:35;;;;;;;24.40;13.27;;;;;;;3.62;78.97;100415.22;5072108;28;20465;-67
2020/12/08 08:07:00;;;;;;;17.60;11.03;;;;;;;3.68;78.96;100412.09;5054206;28;20040;-67
2020/12/08 08:09:25;;;;;;;18.83;12.20;;;;;;;3.70;79.23;100417.22;5072047;28;20039;-68
2020/12/08 08:11:51;;;;;;;18.13;11.43;;;;;;;3.71;79.18;100416.28;5071812;28;20036;-67
2020/12/08 08:14:16;;;;;;;19.63;12.00;;;;;;;3.70;78.73;100423.38;5072120;28;20047;-68
2020/12/08 08:16:41;;;;;;;16.47;10.97;;;;;;;3.71;78.98;100414.47;5071673;28;20028;-68
2020/12/08 08:19:07;;;;;;;19.80;12.63;;;;;;;3.67;78.62;100418.31;5072080;28;20043;-67
2020/12/08 08:21:32;;;;;;;17.63;11.97;;;;;;;3.71;78.82;100418.94;5071834;28;20043;-68
2020/12/08 08:23:58;;;;;;;18.80;12.17;;;;;;;3.70;78.52;100415.44;5071924;28;20040;-68
2020/12/08 08:26:24;;;;;;;19.73;12.45;;;;;;;3.76;78.75;100425.50;5071302;28;20028;-68
2020/12/08 08:28:49;;;;;;;20.77;13.00;;;;;;;3.74;78.59;100426.59;5071805;28;20385;-68
2020/12/08 08:31:15;;;;;;;20.03;11.87;;;;;;;3.76;78.72;100422.84;5071840;28;20036;-68
2020/12/08 08:33:40;;;;;;;19.40;12.63;;;;;;;3.79;79.23;100427.03;5071585;28;20067;-67
2020/12/08 08:36:06;;;;;;;21.00;13.27;;;;;;;3.81;79.46;100422.47;5070455;28;20067;-68
2020/12/08 08:38:31;;;;;;;21.73;12.60;;;;;;;3.79;79.46;100422.63;5071507;28;20040;-68
2020/12/08 08:40:57;;;;;;;20.70;13.87;;;;;;;3.79;79.51;100422.63;5071487;28;20079;-68
2020/12/08 08:43:23;;;;;;;20.13;13.00;;;;;;;3.80;79.50;100424.28;5071521;28;20029;-68
2020/12/08 08:45:49;;;;;;;22.50;13.65;;;;;;;3.77;79.61;100424.53;5071197;28;20041;-68
2020/12/08 08:48:14;;;;;;;21.23;13.38;;;;;;;3.81;79.99;100423.31;5069840;28;20044;-68
2020/12/08 08:50:40;;;;;;;22.50;13.40;;;;;;;3.84;79.77;100422.25;5053903;28;20127;-68
2020/12/08 08:53:06;;;;;;;21.63;12.90;;;;;;;3.87;80.29;100423.78;5071460;28;20162;-68
2020/12/08 08:55:32;;;;;;;;;;;;;;;3.88;80.27;100426.28;5070719;28;20028;-68
2020/12/08 08:57:57;;;;;;;;;;;;;;;3.88;80.28;100430.72;5054012;28;20335;-68
2020/12/08 09:00:22;;;;;;;18.63;13.00;;;;;;;3.81;80.13;100425.94;5070478;28;19916;-68
2020/12/08 09:02:47;;;;;;;18.13;12.37;;;;;;;3.89;80.71;100435.06;5071151;28;20040;-68
2020/12/08 09:05:14;;;;;;;21.33;13.63;;;;;;;3.93;80.32;100431.19;5071354;28;20043;-68
2020/12/08 09:07:40;;;;;;;23.17;14.88;;;;;;;3.98;80.09;100426.34;5070072;28;20114;-68
2020/12/08 09:10:06;;;;;;;21.55;12.55;;;;;;;4.04;80.29;100430.31;5071154;28;20457;-68
2020/12/08 09:12:31;;;;;;;23.93;15.27;;;;;;;4.10;80.05;100429.81;5070263;28;20365;-68
2020/12/08 09:14:59;;;;;;;20.43;13.57;;;;;;;4.20;79.81;100428.06;5070161;28;20136;-68
2020/12/08 09:17:25;;;;;;;20.33;14.38;;;;;;;4.29;80.10;100429.09;5069914;28;20040;-68
2020/12/08 09:19:51;;;;;;;22.42;13.43;;;;;;;4.36;79.22;100432.88;5069146;28;20028;-68
2020/12/08 09:22:16;;;;;;;20.92;13.98;;;;;;;4.47;79.64;100424.84;5070488;28;20036;-67
2020/12/08 09:24:41;;;;;;;19.40;13.63;;;;;;;4.53;79.40;100429.63;5070974;28;20051;-68
2020/12/08 09:27:07;;;;;;;17.83;12.30;;;;;;;4.60;79.19;100429.94;5053185;28;20480;-68
2020/12/08 09:29:34;;;;;;;19.92;12.63;;;;;;;4.70;78.91;100427.34;5071051;28;20440;-68
2020/12/08 09:32:00;;;;;;;19.83;12.32;;;;;;;4.72;78.69;100418.31;5070935;28;20037;-67
2020/12/08 09:34:26;;;;;;;23.10;14.45;;;;;;;4.60;78.71;100416.72;5071121;28;20591;-68
2020/12/08 09:36:52;;;;;;;19.95;13.32;;;;;;;4.73;78.55;100422.66;5070775;28;20037;-68
2020/12/08 09:39:18;;;;;;;23.17;16.17;;;;;;;4.77;78.77;100424.03;5070847;28;20041;-68
2020/12/08 09:41:43;;;;;;;31.00;20.85;;;;;;;4.69;78.64;100425.69;5069963;28;20109;-68
2020/12/08 09:44:10;;;;;;;27.60;19.23;;;;;;;4.59;78.41;100423.84;5070984;28;20111;-68
2020/12/08 09:46:42;;;;;;;30.45;17.42;;;;;;;4.58;79.29;100423.94;5069587;28;20040;-68
2020/12/08 09:49:08;;;;;;;23.00;15.43;;;;;;;4.54;79.67;100423.38;5053269;28;20610;-68
2020/12/08 09:51:34;;;;;;;27.60;16.83;;;;;;;4.47;80.31;100422.22;5070297;28;20036;-68
2020/12/08 09:53:59;;;;;;;25.40;15.25;;;;;;;4.57;80.24;100417.84;5070826;28;20043;-68
2020/12/08 09:56:25;;;;;;;24.77;15.50;;;;;;;4.49;80.22;100416.81;5070591;28;20416;-68
2020/12/08 09:58:54;;;;;;;23.75;15.90;;;;;;;4.49;80.43;100415.00;5072014;28;20098;-68
2020/12/08 10:01:26;;;;;;;25.20;16.17;;;;;;;4.52;80.30;100414.75;5074622;28;20047;-69
2020/12/08 10:03:53;;;;;;;22.70;15.68;;;;;;;4.58;80.34;100414.19;5073544;28;20032;-68
2020/12/08 10:06:18;;;;;;;24.80;15.63;;;;;;;4.65;80.46;100418.00;5073038;28;20091;-68
2020/12/08 10:08:43;;;;;;;25.50;15.47;;;;;;;4.64;80.46;100418.97;5073684;28;20111;-68
2020/12/08 10:11:09;;;;;;;22.30;15.40;;;;;;;4.62;80.42;100422.72;5074412;28;20453;-68
2020/12/08 10:13:34;;;;;;;27.70;17.50;;;;;;;4.64;80.85;100420.78;5074387;28;20047;-67
2020/12/08 10:15:59;;;;;;;26.73;16.90;;;;;;;4.64;80.26;100418.97;5073184;28;20318;-68
2020/12/08 10:18:25;;;;;;;32.17;16.33;;;;;;;4.69;80.25;100420.41;5056755;28;20068;-68
2020/12/08 10:20:50;;;;;;;25.00;15.70;;;;;;;4.61;80.29;100415.75;5074201;28;20040;-68
2020/12/08 10:23:15;;;;;;;19.37;13.63;;;;;;;4.72;80.80;100415.66;5074321;28;20032;-67
2020/12/08 10:25:41;;;;;;;21.77;14.70;;;;;;;4.74;80.07;100412.91;5073825;28;20048;-68
2020/12/08 10:28:06;;;;;;;23.70;16.17;;;;;;;4.76;79.87;100422.38;5073253;28;20040;-68
2020/12/08 10:30:31;;;;;;;23.17;14.93;;;;;;;4.64;79.42;100418.97;5074181;28;20039;-68
2020/12/08 10:32:57;;;;;;;22.17;14.10;;;;;;;4.81;79.46;100417.50;5056509;28;20037;-68
2020/12/08 10:35:22;;;;;;;25.40;15.37;;;;;;;4.74;78.97;100419.00;5072962;28;20029;-68
2020/12/08 10:37:47;;;;;;;29.10;15.30;;;;;;;4.62;79.95;100417.44;5073715;28;20067;-68
2020/12/08 10:40:13;;;;;;;27.43;17.07;;;;;;;4.67;79.97;100417.88;5056269;28;20032;-68
2020/12/08 10:42:38;;;;;;;26.73;16.87;;;;;;;4.65;80.65;100423.28;5073889;28;20185;-68
2020/12/08 10:45:03;;;;;;;30.13;17.20;;;;;;;4.75;80.86;100422.50;5073657;28;20091;-68
2020/12/08 10:47:29;;;;;;;29.10;17.83;;;;;;;4.72;80.94;100420.13;5073242;28;20082;-68
2020/12/08 10:49:54;;;;;;;31.80;19.00;;;;;;;4.81;81.04;100432.56;5072766;28;20036;-68
2020/12/08 10:52:23;;;;;;;23.07;15.10;;;;;;;4.77;81.35;100426.69;5072644;28;20115;-68
2020/12/08 10:54:48;;;;;;;31.75;17.70;;;;;;;4.78;81.49;100438.13;5072916;28;20446;-68
2020/12/08 10:57:13;;;;;;;33.43;20.13;;;;;;;4.79;81.59;100431.84;5072328;28;20045;-68
2020/12/08 10:59:39;;;;;;;33.13;19.57;;;;;;;4.84;81.80;100435.75;5073664;28;20043;-68
2020/12/08 11:02:04;;;;;;;39.10;21.03;;;;;;;4.85;82.02;100436.63;5073289;28;20029;-68
2020/12/08 11:04:30;;;;;;;36.10;20.17;;;;;;;4.88;81.83;100430.22;5072390;28;20036;-68
2020/12/08 11:06:56;;;;;;;38.00;21.67;;;;;;;4.91;81.61;100425.47;5072087;28;20287;-67
2020/12/08 11:09:22;;;;;;;35.10;22.83;;;;;;;4.75;82.36;100430.44;5071909;28;20370;-67
2020/12/08 11:11:47;;;;;;;37.03;20.40;;;;;;;4.75;82.64;100426.00;5072091;28;20040;-67
2020/12/08 11:14:12;;;;;;;41.97;23.10;;;;;;;4.79;82.25;100431.84;5073440;28;20033;-67
2020/12/08 11:16:38;;;;;;;36.63;20.80;;;;;;;4.95;82.03;100426.91;5072162;28;20047;-68
2020/12/08 11:19:03;;;;;;;34.83;20.57;;;;;;;5.07;81.85;100420.53;5073200;28;20048;-68
2020/12/08 11:21:31;;;;;;;36.53;23.87;;;;;;;5.12;81.29;100428.06;5072254;28;20040;-68